sensor_id;sensor_type;location;lat;lon;timestamp;pressure;altitude;pressure_sealevel;temperature;humidity
7441;BME280;29616;51.950;8.572;2023-05-11T00:01:28;99831.38;;;13.84;100.00
7441;BME280;29616;51.950;8.572;2023-05-11T00:03:58;99829.69;;;13.83;100.00
7441;BME280;29616;51.950;8.572;2023-05-11T00:06:29;99828.81;;;13.83;100.00
7441;BME280;29616;51.950;8.572;2023-05-11T00:08:58;99832.13;;;13.78;100.00
7441;BME280;29616;51.950;8.572;2023-05-11T00:11:32;99829.38;;;13.78;100.00
7441;BME280;29616;51.950;8.572;2023-05-11T00:14:00;99824.69;;;13.79;100.00
7441;BME280;29616;51.950;8.572;2023-05-11T00:16:32;99827.63;;;13.77;100.00
7441;BME280;29616;51.950;8.572;2023-05-11T00:19:02;99823.72;;;13.72;100.00
7441;BME280;29616;51.950;8.572;2023-05-11T00:21:32;99821.31;;;13.69;100.00
7441;BME280;29616;51.950;8.572;2023-05-11T00:24:03;99818.41;;;13.70;100.00
7441;BME280;29616;51.950;8.572;2023-05-11T00:26:33;99818.94;;;13.66;100.00
7441;BME280;29616;51.950;8.572;2023-05-11T00:29:02;99823.72;;;13.72;100.00
7441;BME280;29616;51.950;8.572;2023-05-11T00:31:33;99818.03;;;13.73;100.00
7441;BME280;29616;51.950;8.572;2023-05-11T00:34:03;99820.31;;;13.70;100.00
7441;BME280;29616;51.950;8.572;2023-05-11T00:36:31;99808.47;;;13.69;100.00
7441;BME280;29616;51.950;8.572;2023-05-11T00:39:01;99809.31;;;13.70;100.00
7441;BME280;29616;51.950;8.572;2023-05-11T00:41:29;99813.94;;;13.69;100.00
7441;BME280;29616;51.950;8.572;2023-05-11T00:43:58;99808.66;;;13.68;100.00
7441;BME280;29616;51.950;8.572;2023-05-11T00:46:27;99803.69;;;13.63;100.00
7441;BME280;29616;51.950;8.572;2023-05-11T00:48:58;99800.41;;;13.68;100.00
7441;BME280;29616;51.950;8.572;2023-05-11T00:51:28;99810.53;;;13.67;100.00
7441;BME280;29616;51.950;8.572;2023-05-11T00:53:57;99812.59;;;13.65;100.00
7441;BME280;29616;51.950;8.572;2023-05-11T00:56:28;99765.19;;;13.41;100.00
7441;BME280;29616;51.950;8.572;2023-05-11T00:58:58;99816.69;;;13.69;100.00
7441;BME280;29616;51.950;8.572;2023-05-11T01:01:29;99815.16;;;13.67;100.00
7441;BME280;29616;51.950;8.572;2023-05-11T01:03:58;99816.69;;;13.69;100.00
7441;BME280;29616;51.950;8.572;2023-05-11T01:06:35;99805.56;;;13.63;100.00
7441;BME280;29616;51.950;8.572;2023-05-11T01:09:19;99809.31;;;13.70;100.00
7441;BME280;29616;51.950;8.572;2023-05-11T01:11:59;99819.44;;;13.69;100.00
7441;BME280;29616;51.950;8.572;2023-05-11T01:14:38;99821.69;;;13.66;100.00
7441;BME280;29616;51.950;8.572;2023-05-11T01:17:13;99806.63;;;13.62;100.00
7441;BME280;29616;51.950;8.572;2023-05-11T01:19:54;99827.53;;;13.63;100.00
7441;BME280;29616;51.950;8.572;2023-05-11T01:22:49;99823.25;;;13.60;100.00
7441;BME280;29616;51.950;8.572;2023-05-11T01:26:05;99817.59;;;13.62;100.00
7441;BME280;29616;51.950;8.572;2023-05-11T01:31:55;99824.16;;;13.53;100.00
7441;BME280;29616;51.950;8.572;2023-05-11T01:34:29;99819.16;;;13.56;100.00
7441;BME280;29616;51.950;8.572;2023-05-11T01:37:05;99821.56;;;13.59;100.00
7441;BME280;29616;51.950;8.572;2023-05-11T01:39:44;99821.38;;;13.61;100.00
7441;BME280;29616;51.950;8.572;2023-05-11T01:42:25;99806.81;;;13.52;100.00
7441;BME280;29616;51.950;8.572;2023-05-11T01:44:59;99823.44;;;13.59;100.00
7441;BME280;29616;51.950;8.572;2023-05-11T01:47:29;99820.03;;;13.57;100.00
7441;BME280;29616;51.950;8.572;2023-05-11T01:50:00;99836.50;;;13.57;100.00
7441;BME280;29616;51.950;8.572;2023-05-11T01:52:30;99835.44;;;13.58;100.00
7441;BME280;29616;51.950;8.572;2023-05-11T01:55:04;99833.06;;;13.55;100.00
7441;BME280;29616;51.950;8.572;2023-05-11T01:57:34;99839.91;;;13.59;100.00
7441;BME280;29616;51.950;8.572;2023-05-11T02:00:07;99831.84;;;13.57;100.00
7441;BME280;29616;51.950;8.572;2023-05-11T02:02:40;99836.50;;;13.57;100.00
7441;BME280;29616;51.950;8.572;2023-05-11T02:05:14;99813.19;;;13.45;100.00
7441;BME280;29616;51.950;8.572;2023-05-11T02:07:46;99825.59;;;13.41;100.00
7441;BME280;29616;51.950;8.572;2023-05-11T02:10:17;99835.13;;;13.53;100.00
7441;BME280;29616;51.950;8.572;2023-05-11T02:12:48;99836.34;;;13.50;100.00
7441;BME280;29616;51.950;8.572;2023-05-11T02:15:21;99843.06;;;13.48;100.00
7441;BME280;29616;51.950;8.572;2023-05-11T02:17:54;99844.41;;;13.52;100.00
7441;BME280;29616;51.950;8.572;2023-05-11T02:20:25;99841.16;;;13.48;100.00
7441;BME280;29616;51.950;8.572;2023-05-11T02:22:55;99843.91;;;13.48;100.00
7441;BME280;29616;51.950;8.572;2023-05-11T02:25:24;99833.47;;;13.44;100.00
7441;BME280;29616;51.950;8.572;2023-05-11T02:27:53;99837.72;;;13.54;100.00
7441;BME280;29616;51.950;8.572;2023-05-11T02:30:24;99849.19;;;13.58;100.00
7441;BME280;29616;51.950;8.572;2023-05-11T02:32:55;99844.38;;;13.60;100.00
7441;BME280;29616;51.950;8.572;2023-05-11T02:35:29;99843.53;;;13.59;100.00
7441;BME280;29616;51.950;8.572;2023-05-11T02:38:01;99840.28;;;13.56;100.00
7441;BME280;29616;51.950;8.572;2023-05-11T02:40:39;99843.38;;;13.53;100.00
7441;BME280;29616;51.950;8.572;2023-05-11T02:43:12;99847.84;;;13.54;100.00
7441;BME280;29616;51.950;8.572;2023-05-11T02:45:52;99840.97;;;13.50;100.00
7441;BME280;29616;51.950;8.572;2023-05-11T02:48:30;99851.25;;;13.56;100.00
7441;BME280;29616;51.950;8.572;2023-05-11T02:51:01;99835.66;;;13.56;100.00
7441;BME280;29616;51.950;8.572;2023-05-11T02:53:40;99843.69;;;13.58;100.00
7441;BME280;29616;51.950;8.572;2023-05-11T02:56:11;99851.22;;;13.64;100.00
7441;BME280;29616;51.950;8.572;2023-05-11T02:58:41;99848.13;;;13.67;100.00
7441;BME280;29616;51.950;8.572;2023-05-11T03:01:18;99844.16;;;13.69;100.00
7441;BME280;29616;51.950;8.572;2023-05-11T03:03:50;99850.16;;;13.73;100.00
7441;BME280;29616;51.950;8.572;2023-05-11T03:06:20;99846.34;;;13.74;100.00
7441;BME280;29616;51.950;8.572;2023-05-11T03:08:52;99843.44;;;13.75;100.00
7441;BME280;29616;51.950;8.572;2023-05-11T03:11:21;99837.75;;;13.77;100.00
7441;BME280;29616;51.950;8.572;2023-05-11T03:13:52;99843.44;;;13.75;100.00
7441;BME280;29616;51.950;8.572;2023-05-11T03:16:21;99838.47;;;13.71;100.00
7441;BME280;29616;51.950;8.572;2023-05-11T03:18:53;99841.72;;;13.74;100.00
7441;BME280;29616;51.950;8.572;2023-05-11T03:21:23;99799.63;;;13.51;100.00
7441;BME280;29616;51.950;8.572;2023-05-11T03:23:55;99837.97;;;13.75;100.00
7441;BME280;29616;51.950;8.572;2023-05-11T03:26:26;99836.03;;;13.76;100.00
7441;BME280;29616;51.950;8.572;2023-05-11T03:28:59;99840.88;;;13.74;100.00
7441;BME280;29616;51.950;8.572;2023-05-11T03:31:28;99840.16;;;13.80;100.00
7441;BME280;29616;51.950;8.572;2023-05-11T03:33:59;99833.44;;;13.82;100.00
7441;BME280;29616;51.950;8.572;2023-05-11T03:36:33;99846.31;;;13.82;100.00
7441;BME280;29616;51.950;8.572;2023-05-11T03:39:03;99848.41;;;13.80;100.00
7441;BME280;29616;51.950;8.572;2023-05-11T03:41:33;99831.75;;;13.73;100.00
7441;BME280;29616;51.950;8.572;2023-05-11T03:44:04;99840.81;;;13.82;100.00
7441;BME280;29616;51.950;8.572;2023-05-11T03:46:40;99834.84;;;13.78;100.00
7441;BME280;29616;51.950;8.572;2023-05-11T03:49:14;99837.56;;;13.86;100.00
7441;BME280;29616;51.950;8.572;2023-05-11T03:51:44;99818.59;;;13.69;100.00
7441;BME280;29616;51.950;8.572;2023-05-11T03:54:13;99834.00;;;13.78;100.00
7441;BME280;29616;51.950;8.572;2023-05-11T03:56:43;99840.34;;;13.78;100.00
7441;BME280;29616;51.950;8.572;2023-05-11T03:59:14;99834.69;;;13.72;100.00
7441;BME280;29616;51.950;8.572;2023-05-11T04:01:44;99829.38;;;13.78;100.00
7441;BME280;29616;51.950;8.572;2023-05-11T04:04:15;99834.47;;;13.81;100.00
7441;BME280;29616;51.950;8.572;2023-05-11T04:06:44;99837.41;;;13.80;100.00
7441;BME280;29616;51.950;8.572;2023-05-11T04:09:18;99837.06;;;13.83;100.00
7441;BME280;29616;51.950;8.572;2023-05-11T04:11:47;99831.56;;;13.83;100.00
7441;BME280;29616;51.950;8.572;2023-05-11T04:14:16;99832.59;;;13.82;100.00
7441;BME280;29616;51.950;8.572;2023-05-11T04:16:45;99833.44;;;13.82;100.00
7441;BME280;29616;51.950;8.572;2023-05-11T04:19:16;99832.06;;;13.86;100.00
7441;BME280;29616;51.950;8.572;2023-05-11T04:21:47;99833.75;;;13.87;100.00
7441;BME280;29616;51.950;8.572;2023-05-11T04:24:16;99837.88;;;13.91;100.00
7441;BME280;29616;51.950;8.572;2023-05-11T04:26:47;99832.19;;;13.93;100.00
7441;BME280;29616;51.950;8.572;2023-05-11T04:29:15;99838.34;;;13.95;100.00
7441;BME280;29616;51.950;8.572;2023-05-11T04:31:43;99835.59;;;13.95;100.00
7441;BME280;29616;51.950;8.572;2023-05-11T04:34:11;99833.03;;;13.93;100.00
7441;BME280;29616;51.950;8.572;2023-05-11T04:36:41;99845.50;;;14.04;100.00
7441;BME280;29616;51.950;8.572;2023-05-11T04:39:09;99841.34;;;14.08;100.00
7441;BME280;29616;51.950;8.572;2023-05-11T04:41:39;99847.00;;;14.15;100.00
7441;BME280;29616;51.950;8.572;2023-05-11T04:44:09;99829.88;;;14.05;100.00
7441;BME280;29616;51.950;8.572;2023-05-11T04:46:37;99849.19;;;14.19;100.00
7441;BME280;29616;51.950;8.572;2023-05-11T04:49:07;99841.84;;;14.12;100.00
7441;BME280;29616;51.950;8.572;2023-05-11T04:51:38;99847.34;;;14.12;100.00
7441;BME280;29616;51.950;8.572;2023-05-11T04:54:09;99848.00;;;14.14;100.00
7441;BME280;29616;51.950;8.572;2023-05-11T04:56:37;99852.34;;;14.08;100.00
7441;BME280;29616;51.950;8.572;2023-05-11T04:59:08;99854.22;;;14.16;100.00
7441;BME280;29616;51.950;8.572;2023-05-11T05:01:37;99860.38;;;14.18;100.00
7441;BME280;29616;51.950;8.572;2023-05-11T05:04:08;99834.88;;;14.01;100.00
7441;BME280;29616;51.950;8.572;2023-05-11T05:06:40;99855.75;;;14.18;100.00
7441;BME280;29616;51.950;8.572;2023-05-11T05:09:11;99856.75;;;14.17;100.00
7441;BME280;29616;51.950;8.572;2023-05-11T05:11:41;99856.81;;;14.09;100.00
7441;BME280;29616;51.950;8.572;2023-05-11T05:14:11;99859.88;;;14.14;100.00
7441;BME280;29616;51.950;8.572;2023-05-11T05:21:22;99869.44;;;14.26;100.00
7441;BME280;29616;51.950;8.572;2023-05-11T05:23:52;99864.75;;;14.27;100.00
7441;BME280;29616;51.950;8.572;2023-05-11T05:26:23;99872.63;;;14.38;100.00
7441;BME280;29616;51.950;8.572;2023-05-11T05:28:53;99875.00;;;14.41;100.00
7441;BME280;29616;51.950;8.572;2023-05-11T05:31:21;99877.97;;;14.39;100.00
7441;BME280;29616;51.950;8.572;2023-05-11T05:33:52;99880.31;;;14.42;100.00
7441;BME280;29616;51.950;8.572;2023-05-11T05:36:20;99885.66;;;14.44;100.00
7441;BME280;29616;51.950;8.572;2023-05-11T05:38:49;99880.50;;;14.41;100.00
7441;BME280;29616;51.950;8.572;2023-05-11T05:41:23;99886.00;;;14.41;100.00
7441;BME280;29616;51.950;8.572;2023-05-11T05:43:53;99886.94;;;14.33;100.00
7441;BME280;29616;51.950;8.572;2023-05-11T05:46:24;99894.06;;;14.42;100.00
7441;BME280;29616;51.950;8.572;2023-05-11T05:48:53;99890.66;;;14.40;100.00
7441;BME280;29616;51.950;8.572;2023-05-11T05:51:22;99900.63;;;14.41;100.00
7441;BME280;29616;51.950;8.572;2023-05-11T05:53:51;99897.75;;;14.57;100.00
7441;BME280;29616;51.950;8.572;2023-05-11T05:56:20;99893.59;;;14.62;100.00
7441;BME280;29616;51.950;8.572;2023-05-11T05:58:51;99890.03;;;14.76;100.00
7441;BME280;29616;51.950;8.572;2023-05-11T06:01:22;99910.94;;;14.85;100.00
7441;BME280;29616;51.950;8.572;2023-05-11T06:03:52;99901.63;;;14.86;100.00
7441;BME280;29616;51.950;8.572;2023-05-11T06:06:24;99902.31;;;14.88;100.00
7441;BME280;29616;51.950;8.572;2023-05-11T06:08:52;99904.97;;;14.96;100.00
7441;BME280;29616;51.950;8.572;2023-05-11T06:11:22;99899.91;;;15.07;100.00
7441;BME280;29616;51.950;8.572;2023-05-11T06:13:52;99900.31;;;15.19;100.00
7441;BME280;29616;51.950;8.572;2023-05-11T06:16:22;99904.00;;;15.26;100.00
7441;BME280;29616;51.950;8.572;2023-05-11T06:18:54;99895.66;;;15.34;100.00
7441;BME280;29616;51.950;8.572;2023-05-11T06:21:23;99896.53;;;15.35;100.00
7441;BME280;29616;51.950;8.572;2023-05-11T06:23:53;99902.50;;;15.38;100.00
7441;BME280;29616;51.950;8.572;2023-05-11T06:26:21;99897.00;;;15.38;100.00
7441;BME280;29616;51.950;8.572;2023-05-11T06:28:53;99902.84;;;15.58;100.00
7441;BME280;29616;51.950;8.572;2023-05-11T06:31:22;99901.91;;;15.51;100.00
7441;BME280;29616;51.950;8.572;2023-05-11T06:33:51;99906.25;;;15.60;100.00
7441;BME280;29616;51.950;8.572;2023-05-11T06:36:25;99899.31;;;15.78;100.00
7441;BME280;29616;51.950;8.572;2023-05-11T06:38:54;99903.31;;;15.91;100.00
7441;BME280;29616;51.950;8.572;2023-05-11T06:41:24;99897.41;;;15.94;100.00
7441;BME280;29616;51.950;8.572;2023-05-11T06:43:56;99902.25;;;16.06;100.00
7441;BME280;29616;51.950;8.572;2023-05-11T06:46:28;99888.94;;;15.95;100.00
7441;BME280;29616;51.950;8.572;2023-05-11T06:48:57;99900.34;;;16.07;100.00
7441;BME280;29616;51.950;8.572;2023-05-11T06:51:29;99905.09;;;15.98;100.00
7441;BME280;29616;51.950;8.572;2023-05-11T06:53:59;99896.66;;;15.85;100.00
7441;BME280;29616;51.950;8.572;2023-05-11T06:56:28;99906.53;;;15.80;100.00
7441;BME280;29616;51.950;8.572;2023-05-11T06:59:00;99898.88;;;15.75;100.00
7441;BME280;29616;51.950;8.572;2023-05-11T07:01:29;99895.16;;;15.83;100.00
7441;BME280;29616;51.950;8.572;2023-05-11T07:03:59;99903.13;;;15.77;100.00
7441;BME280;29616;51.950;8.572;2023-05-11T07:06:29;99904.56;;;15.88;100.00
7441;BME280;29616;51.950;8.572;2023-05-11T07:08:58;99904.34;;;15.90;100.00
7441;BME280;29616;51.950;8.572;2023-05-11T07:11:29;99909.25;;;16.09;100.00
7441;BME280;29616;51.950;8.572;2023-05-11T07:13:59;99907.59;;;16.29;100.00
7441;BME280;29616;51.950;8.572;2023-05-11T07:16:28;99910.22;;;16.37;100.00
7441;BME280;29616;51.950;8.572;2023-05-11T07:18:57;99914.06;;;16.36;100.00
7441;BME280;29616;51.950;8.572;2023-05-11T07:21:27;99911.88;;;16.31;100.00
7441;BME280;29616;51.950;8.572;2023-05-11T07:23:56;99908.06;;;16.32;100.00
7441;BME280;29616;51.950;8.572;2023-05-11T07:26:26;99915.97;;;16.35;100.00
7441;BME280;29616;51.950;8.572;2023-05-11T07:28:56;99905.81;;;16.21;100.00
7441;BME280;29616;51.950;8.572;2023-05-11T07:31:26;99917.69;;;16.22;100.00
7441;BME280;29616;51.950;8.572;2023-05-11T07:33:57;99920.47;;;16.22;100.00
7441;BME280;29616;51.950;8.572;2023-05-11T07:36:26;99918.19;;;16.25;100.00
7441;BME280;29616;51.950;8.572;2023-05-11T07:38:57;99914.03;;;16.15;100.00
7441;BME280;29616;51.950;8.572;2023-05-11T07:41:27;99918.56;;;16.08;100.00
7441;BME280;29616;51.950;8.572;2023-05-11T07:43:59;99919.16;;;16.18;100.00
7441;BME280;29616;51.950;8.572;2023-05-11T07:46:29;99913.63;;;16.18;100.00
7441;BME280;29616;51.950;8.572;2023-05-11T07:48:59;99900.34;;;15.92;100.00
7441;BME280;29616;51.950;8.572;2023-05-11T07:51:45;99918.28;;;16.17;100.00
7441;BME280;29616;51.950;8.572;2023-05-11T07:54:15;99904.94;;;16.21;100.00
7441;BME280;29616;51.950;8.572;2023-05-11T07:56:49;99906.78;;;16.14;100.00
7441;BME280;29616;51.950;8.572;2023-05-11T07:59:19;99919.81;;;16.20;100.00
7441;BME280;29616;51.950;8.572;2023-05-11T08:01:48;99910.09;;;16.24;100.00
7441;BME280;29616;51.950;8.572;2023-05-11T08:04:18;99921.09;;;16.24;100.00
7441;BME280;29616;51.950;8.572;2023-05-11T08:06:47;99917.69;;;16.22;100.00
7441;BME280;29616;51.950;8.572;2023-05-11T08:09:15;99916.28;;;16.26;100.00
7441;BME280;29616;51.950;8.572;2023-05-11T08:11:43;99924.59;;;16.47;100.00
7441;BME280;29616;51.950;8.572;2023-05-11T08:14:13;99911.59;;;16.26;100.00
7441;BME280;29616;51.950;8.572;2023-05-11T08:16:44;99911.41;;;16.28;100.00
7441;BME280;29616;51.950;8.572;2023-05-11T08:19:15;99916.38;;;16.68;100.00
7441;BME280;29616;51.950;8.572;2023-05-11T08:21:45;99919.91;;;16.62;100.00
7441;BME280;29616;51.950;8.572;2023-05-11T08:24:13;99920.03;;;16.75;100.00
7441;BME280;29616;51.950;8.572;2023-05-11T08:26:43;99906.47;;;17.02;100.00
7441;BME280;29616;51.950;8.572;2023-05-11T08:29:12;99911.66;;;16.90;100.00
7441;BME280;29616;51.950;8.572;2023-05-11T08:31:43;99911.75;;;16.96;100.00
7441;BME280;29616;51.950;8.572;2023-05-11T08:34:15;99922.13;;;17.16;100.00
7441;BME280;29616;51.950;8.572;2023-05-11T08:36:46;99915.75;;;17.43;100.00
7441;BME280;29616;51.950;8.572;2023-05-11T08:39:14;99914.41;;;17.60;100.00
7441;BME280;29616;51.950;8.572;2023-05-11T08:42:01;99924.84;;;17.65;100.00
7441;BME280;29616;51.950;8.572;2023-05-11T08:44:32;99916.22;;;17.74;100.00
7441;BME280;29616;51.950;8.572;2023-05-11T08:47:04;99910.78;;;17.94;100.00
7441;BME280;29616;51.950;8.572;2023-05-11T08:49:52;99901.94;;;18.11;100.00
7441;BME280;29616;51.950;8.572;2023-05-11T08:52:21;99913.03;;;18.18;100.00
7441;BME280;29616;51.950;8.572;2023-05-11T08:54:52;99916.47;;;18.27;100.00
7441;BME280;29616;51.950;8.572;2023-05-11T08:57:23;99917.50;;;18.19;100.00
7441;BME280;29616;51.950;8.572;2023-05-11T08:59:54;99911.56;;;18.22;100.00
7441;BME280;29616;51.950;8.572;2023-05-11T09:02:24;99917.50;;;18.26;100.00
7441;BME280;29616;51.950;8.572;2023-05-11T09:04:54;99920.94;;;18.28;100.00
7441;BME280;29616;51.950;8.572;2023-05-11T09:07:26;99921.84;;;18.41;100.00
7441;BME280;29616;51.950;8.572;2023-05-11T09:09:56;99917.16;;;18.35;100.00
7441;BME280;29616;51.950;8.572;2023-05-11T09:12:27;99923.69;;;18.21;100.00
7441;BME280;29616;51.950;8.572;2023-05-11T09:14:56;99926.03;;;18.17;100.00
7441;BME280;29616;51.950;8.572;2023-05-11T09:17:29;99908.22;;;18.33;100.00
7441;BME280;29616;51.950;8.572;2023-05-11T09:20:02;99913.59;;;18.48;100.00
7441;BME280;29616;51.950;8.572;2023-05-11T09:22:39;99924.91;;;18.66;100.00
7441;BME280;29616;51.950;8.572;2023-05-11T09:25:11;99921.84;;;18.41;100.00
7441;BME280;29616;51.950;8.572;2023-05-11T09:27:43;99919.06;;;18.35;100.00
7441;BME280;29616;51.950;8.572;2023-05-11T09:30:17;99921.19;;;18.33;100.00
7441;BME280;29616;51.950;8.572;2023-05-11T09:32:52;99927.28;;;18.62;100.00
7441;BME280;29616;51.950;8.572;2023-05-11T09:35:24;99915.41;;;18.95;100.00
7441;BME280;29616;51.950;8.572;2023-05-11T09:38:00;99916.22;;;18.75;100.00
7441;BME280;29616;51.950;8.572;2023-05-11T09:40:34;99910.22;;;18.59;100.00
7441;BME280;29616;51.950;8.572;2023-05-11T09:43:15;99914.34;;;18.29;100.00
7441;BME280;29616;51.950;8.572;2023-05-11T09:45:47;99913.28;;;18.30;100.00
7441;BME280;29616;51.950;8.572;2023-05-11T09:48:27;99911.56;;;18.29;100.00
7441;BME280;29616;51.950;8.572;2023-05-11T09:51:04;99911.06;;;18.05;100.00
7441;BME280;29616;51.950;8.572;2023-05-11T09:53:35;99915.41;;;17.87;100.00
7441;BME280;29616;51.950;8.572;2023-05-11T09:56:06;99909.34;;;17.64;100.00
7441;BME280;29616;51.950;8.572;2023-05-11T09:58:49;99924.22;;;17.41;100.00
7441;BME280;29616;51.950;8.572;2023-05-11T10:01:29;99919.09;;;17.11;100.00
7441;BME280;29616;51.950;8.572;2023-05-11T10:04:02;99919.78;;;16.91;100.00
7441;BME280;29616;51.950;8.572;2023-05-11T10:06:51;99922.19;;;16.80;100.00
7441;BME280;29616;51.950;8.572;2023-05-11T10:09:23;99929.56;;;16.73;100.00
7441;BME280;29616;51.950;8.572;2023-05-11T10:11:54;99928.78;;;16.43;100.00
7441;BME280;29616;51.950;8.572;2023-05-11T10:14:24;99929.97;;;16.19;100.00
7441;BME280;29616;51.950;8.572;2023-05-11T10:16:56;99916.50;;;15.95;100.00
7441;BME280;29616;51.950;8.572;2023-05-11T10:19:26;99915.00;;;16.07;100.00
7441;BME280;29616;51.950;8.572;2023-05-11T10:21:58;99916.81;;;15.86;100.00
7441;BME280;29616;51.950;8.572;2023-05-11T10:24:28;99920.97;;;15.82;100.00
7441;BME280;29616;51.950;8.572;2023-05-11T10:26:58;99915.09;;;15.85;100.00
7441;BME280;29616;51.950;8.572;2023-05-11T10:29:28;99915.47;;;15.82;100.00
7441;BME280;29616;51.950;8.572;2023-05-11T10:31:59;99904.38;;;15.75;100.00
7441;BME280;29616;51.950;8.572;2023-05-11T10:34:30;99915.84;;;15.78;100.00
7441;BME280;29616;51.950;8.572;2023-05-11T10:37:02;99918.31;;;15.73;100.00
7441;BME280;29616;51.950;8.572;2023-05-11T10:39:31;99918.97;;;15.75;100.00
7441;BME280;29616;51.950;8.572;2023-05-11T10:42:20;99907.59;;;15.64;100.00
7441;BME280;29616;51.950;8.572;2023-05-11T10:45:01;99919.56;;;15.71;100.00
7441;BME280;29616;51.950;8.572;2023-05-11T10:51:32;99926.88;;;15.78;100.00
7441;BME280;29616;51.950;8.572;2023-05-11T10:54:44;99919.28;;;15.81;100.00
7441;BME280;29616;51.950;8.572;2023-05-11T10:57:36;99914.34;;;15.61;100.00
7441;BME280;29616;51.950;8.572;2023-05-11T11:00:50;99909.41;;;15.71;100.00
7441;BME280;29616;51.950;8.572;2023-05-11T11:03:29;99910.34;;;15.64;100.00
7441;BME280;29616;51.950;8.572;2023-05-11T11:05:57;99916.13;;;15.98;100.00
7441;BME280;29616;51.950;8.572;2023-05-11T11:08:28;99910.13;;;16.09;100.00
7441;BME280;29616;51.950;8.572;2023-05-11T11:10:59;99912.66;;;16.25;100.00
7441;BME280;29616;51.950;8.572;2023-05-11T11:13:28;99922.28;;;16.15;100.00
7441;BME280;29616;51.950;8.572;2023-05-11T11:16:11;99918.19;;;16.25;100.00
7441;BME280;29616;51.950;8.572;2023-05-11T11:18:43;99923.13;;;16.15;100.00
7441;BME280;29616;51.950;8.572;2023-05-11T11:21:41;99922.22;;;16.44;100.00
7441;BME280;29616;51.950;8.572;2023-05-11T11:24:44;99920.25;;;16.74;100.00
7441;BME280;29616;51.950;8.572;2023-05-11T11:27:17;99930.34;;;16.88;100.00
7441;BME280;29616;51.950;8.572;2023-05-11T11:30:15;99925.69;;;16.88;100.00
7441;BME280;29616;51.950;8.572;2023-05-11T11:32:47;99916.22;;;16.76;100.00
7441;BME280;29616;51.950;8.572;2023-05-11T11:35:44;99927.16;;;16.84;100.00
7441;BME280;29616;51.950;8.572;2023-05-11T11:38:16;99926.56;;;16.53;100.00
7441;BME280;29616;51.950;8.572;2023-05-11T11:40:45;99923.53;;;16.48;100.00
7441;BME280;29616;51.950;8.572;2023-05-11T11:43:22;99929.09;;;16.69;100.00
7441;BME280;29616;51.950;8.572;2023-05-11T11:45:52;99923.69;;;17.04;100.00
7441;BME280;29616;51.950;8.572;2023-05-11T11:48:29;99923.75;;;17.10;100.00
7441;BME280;29616;51.950;8.572;2023-05-11T11:51:04;99914.69;;;17.16;100.00
7441;BME280;29616;51.950;8.572;2023-05-11T11:54:02;99930.81;;;16.91;100.00
7441;BME280;29616;51.950;8.572;2023-05-11T11:56:38;99936.50;;;16.69;100.00
7441;BME280;29616;51.950;8.572;2023-05-11T11:59:10;99933.53;;;16.49;100.00
7441;BME280;29616;51.950;8.572;2023-05-11T12:01:44;99930.50;;;16.44;100.00
7441;BME280;29616;51.950;8.572;2023-05-11T12:04:49;99932.72;;;16.70;100.00
7441;BME280;29616;51.950;8.572;2023-05-11T12:07:20;99934.16;;;16.66;100.00
7441;BME280;29616;51.950;8.572;2023-05-11T12:09:51;99919.81;;;16.77;100.00
7441;BME280;29616;51.950;8.572;2023-05-11T12:12:21;99931.00;;;16.69;100.00
7441;BME280;29616;51.950;8.572;2023-05-11T12:14:51;99928.28;;;16.54;100.00
7441;BME280;29616;51.950;8.572;2023-05-11T12:17:25;99934.16;;;16.51;100.00
7441;BME280;29616;51.950;8.572;2023-05-11T12:20:09;99932.88;;;16.47;100.00
7441;BME280;29616;51.950;8.572;2023-05-11T12:22:38;99934.63;;;16.19;100.00
7441;BME280;29616;51.950;8.572;2023-05-11T12:25:08;99931.00;;;16.33;100.00
7441;BME280;29616;51.950;8.572;2023-05-11T12:27:47;99917.66;;;16.72;100.00
7441;BME280;29616;51.950;8.572;2023-05-11T12:30:23;99931.50;;;17.21;100.00
7441;BME280;29616;51.950;8.572;2023-05-11T12:32:53;99934.31;;;17.00;100.00
7441;BME280;29616;51.950;8.572;2023-05-11T12:35:25;99932.19;;;17.30;100.00
7441;BME280;29616;51.950;8.572;2023-05-11T12:37:58;99919.53;;;17.63;100.00
7441;BME280;29616;51.950;8.572;2023-05-11T12:40:30;99915.09;;;17.41;100.00
7441;BME280;29616;51.950;8.572;2023-05-11T12:42:59;99906.81;;;17.69;100.00
7441;BME280;29616;51.950;8.572;2023-05-11T12:45:29;99904.31;;;18.14;100.00
7441;BME280;29616;51.950;8.572;2023-05-11T12:48:00;99913.50;;;18.28;100.00
7441;BME280;29616;51.950;8.572;2023-05-11T12:50:28;99912.16;;;18.65;100.00
7441;BME280;29616;51.950;8.572;2023-05-11T12:53:12;99906.94;;;18.42;100.00
7441;BME280;29616;51.950;8.572;2023-05-11T12:55:43;99904.53;;;18.26;100.00
7441;BME280;29616;51.950;8.572;2023-05-11T12:58:14;99890.09;;;17.83;100.00
7441;BME280;29616;51.950;8.572;2023-05-11T13:00:52;99901.78;;;17.51;100.00
7441;BME280;29616;51.950;8.572;2023-05-11T13:03:22;99908.25;;;17.09;100.00
7441;BME280;29616;51.950;8.572;2023-05-11T13:06:04;99906.38;;;16.88;100.00
7441;BME280;29616;51.950;8.572;2023-05-11T13:08:32;99905.47;;;16.60;100.00
7441;BME280;29616;51.950;8.572;2023-05-11T13:11:19;99911.88;;;16.67;100.00
7441;BME280;29616;51.950;8.572;2023-05-11T13:13:50;99907.94;;;16.55;100.00
7441;BME280;29616;51.950;8.572;2023-05-11T13:16:26;99912.91;;;16.66;100.00
7441;BME280;29616;51.950;8.572;2023-05-11T13:18:57;99912.00;;;17.02;100.00
7441;BME280;29616;51.950;8.572;2023-05-11T13:21:27;99909.56;;;17.13;100.00
7441;BME280;29616;51.950;8.572;2023-05-11T13:23:56;99906.63;;;16.93;100.00
7441;BME280;29616;51.950;8.572;2023-05-11T13:26:25;99912.25;;;17.07;100.00
7441;BME280;29616;51.950;8.572;2023-05-11T13:28:55;99897.38;;;17.29;100.00
7441;BME280;29616;51.950;8.572;2023-05-11T13:31:43;99912.63;;;17.25;100.00
7441;BME280;29616;51.950;8.572;2023-05-11T13:34:13;99884.78;;;16.98;100.00
7441;BME280;29616;51.950;8.572;2023-05-11T13:36:41;99905.69;;;17.08;100.00
7441;BME280;29616;51.950;8.572;2023-05-11T13:39:11;99897.28;;;17.16;100.00
7441;BME280;29616;51.950;8.572;2023-05-11T13:41:41;99905.31;;;17.11;100.00